Sandy Hill, Louisiana
Current Conditions -  °F | °C
As of 2:05 PM on Thursday 30 Oct 2014 (Local Time) from KPOE Reporting Station
Clear Clear  
Wind Chill: 72°   Ceiling: Unl
Heat Index: 72°   Visibility: 10mi
Dew Point: 43°   Wind: 6mph
Humidity: 35%   Direction: 100°E
Pressure: 30.09"   Gusts: NA
Location:  31.2063°N, 93.1344°W
Report Text: KPOE 301905Z 10005KT 10SM CLR 22/06 A3009
Loading
Personal Weather Stations






























Interactive Weather Map
Tropical Storm Tracking
New forecast layout! Learn more

10-Day Weather Forecast

Advertisements
Track Severe Weather on mobile